createdAt,value
2023-03-19T00:00:02.796Z,0
2023-03-19T00:15:03.362Z,0
2023-03-19T00:30:02.676Z,0
2023-03-19T00:45:03.320Z,0
2023-03-19T01:00:02.544Z,0
2023-03-19T01:15:02.981Z,0
2023-03-19T01:30:02.445Z,0
2023-03-19T01:45:02.906Z,0
2023-03-19T02:00:02.364Z,0
2023-03-19T02:15:02.756Z,0
2023-03-19T02:30:03.155Z,0
2023-03-19T02:45:02.641Z,0
2023-03-19T03:00:03.088Z,0
2023-03-19T03:15:02.494Z,0
2023-03-19T03:30:02.970Z,0
2023-03-19T03:45:02.385Z,0
2023-03-19T04:00:02.810Z,0
2023-03-19T04:15:03.411Z,0
2023-03-19T04:30:02.694Z,0
2023-03-19T04:45:03.158Z,0
2023-03-19T05:00:02.573Z,0
2023-03-19T05:15:03.036Z,0
2023-03-19T05:30:02.460Z,0
2023-03-19T05:45:02.880Z,0
2023-03-19T06:00:02.414Z,9
2023-03-19T06:15:02.772Z,17
2023-03-19T06:30:02.494Z,30
2023-03-19T06:45:02.724Z,49
2023-03-19T07:00:03.098Z,75
2023-03-19T07:15:02.530Z,107
2023-03-19T07:30:02.973Z,140
2023-03-19T07:45:02.437Z,319
2023-03-19T08:00:02.871Z,156
2023-03-19T08:15:02.435Z,140
2023-03-19T08:30:02.770Z,84
2023-03-19T08:45:03.410Z,170
2023-03-19T09:00:02.658Z,162
2023-03-19T09:15:03.090Z,249
2023-03-19T09:30:02.532Z,178
2023-03-19T09:45:02.962Z,107
2023-03-19T10:00:02.472Z,122
2023-03-19T10:15:02.827Z,329
2023-03-19T10:30:02.483Z,191
2023-03-19T10:45:02.746Z,70
2023-03-19T11:00:03.179Z,200
2023-03-19T11:15:02.612Z,209
2023-03-19T11:30:03.072Z,123
2023-03-19T11:45:02.497Z,45
2023-03-19T12:00:02.889Z,184
2023-03-19T12:15:02.512Z,149
2023-03-19T12:30:02.824Z,435
2023-03-19T12:45:02.426Z,480
2023-03-19T13:00:02.681Z,252
2023-03-19T13:15:03.123Z,217
2023-03-19T13:30:02.586Z,73
2023-03-19T13:45:04.067Z,106
2023-03-19T14:00:02.521Z,93
2023-03-19T14:15:02.866Z,89
2023-03-19T14:30:02.512Z,133
2023-03-19T14:45:02.749Z,149
2023-03-19T15:00:03.212Z,176
2023-03-19T15:15:02.626Z,265
2023-03-19T15:30:13.530Z,113
2023-03-19T15:45:02.532Z,113
2023-03-19T16:00:03.024Z,70
2023-03-19T16:15:02.540Z,124
2023-03-19T16:30:02.919Z,95
2023-03-19T16:45:02.228Z,65
2023-03-19T17:00:02.686Z,34
2023-03-19T17:15:03.097Z,5
2023-03-19T17:30:02.528Z,0
2023-03-19T17:45:02.975Z,0
2023-03-19T18:00:02.565Z,0
2023-03-19T18:15:02.859Z,0
2023-03-19T18:30:02.478Z,0
2023-03-19T18:45:02.738Z,0
2023-03-19T19:00:03.209Z,0
2023-03-19T19:15:02.667Z,0
2023-03-19T19:30:03.062Z,0
2023-03-19T19:45:02.579Z,0
2023-03-19T20:00:02.948Z,0
2023-03-19T20:15:02.582Z,0
2023-03-19T20:30:02.809Z,0
2023-03-19T20:45:03.273Z,0
2023-03-19T21:00:02.699Z,0
2023-03-19T21:15:03.136Z,0
2023-03-19T21:30:02.604Z,0
2023-03-19T21:45:02.983Z,0
2023-03-19T22:00:02.607Z,0
2023-03-19T22:15:02.870Z,0
2023-03-19T22:30:02.314Z,0
2023-03-19T22:45:02.751Z,0
2023-03-19T23:00:03.177Z,0
2023-03-19T23:15:02.626Z,0
2023-03-19T23:30:03.059Z,0
2023-03-19T23:45:02.612Z,0
